Time;durP1;ratioP1;P1;durP2;ratioP2;P2;SDS_P1;SDS_P2;PMS_P1;PMS_P2;Temp;Humidity;BMP_temperature;BMP_pressure;BME280_temperature;BME280_humidity;BME280_pressure;Samples;Min_cycle;Max_cycle;Signal;HPM_P1;HPM_P2
2022/12/07 00:01:38;;;;;;;21.08;15.25;;;5.00;93.30;;;;;;5028594;28;20685;-79
2022/12/07 00:04:05;;;;;;;21.50;15.77;;;5.00;93.30;;;;;;5010744;28;20034;-81
2022/12/07 00:06:56;;;;;;;25.20;16.95;;;5.00;93.30;;;;;;5019160;28;20034;-82
2022/12/07 00:09:22;;;;;;;21.98;18.02;;;5.00;93.30;;;;;;5025945;28;20475;-83
2022/12/07 00:11:50;;;;;;;24.70;18.20;;;5.00;93.20;;;;;;5017673;28;20037;-83
2022/12/07 00:14:16;;;;;;;20.23;16.27;;;5.00;93.20;;;;;;5017369;28;20491;-77
2022/12/07 00:16:43;;;;;;;22.13;16.50;;;4.90;93.20;;;;;;5030567;28;20030;-85
2022/12/07 00:19:10;;;;;;;23.05;16.58;;;4.90;93.20;;;;;;5014463;28;20065;-82
2022/12/07 00:21:36;;;;;;;25.65;18.27;;;4.80;93.10;;;;;;5019569;28;20049;-76
2022/12/07 00:24:03;;;;;;;24.48;18.55;;;4.80;93.20;;;;;;5013075;28;20030;-77
2022/12/07 00:26:37;;;;;;;24.17;19.45;;;4.80;93.20;;;;;;5024640;28;20021;-76
2022/12/07 00:29:05;;;;;;;25.30;20.17;;;4.70;93.20;;;;;;5009359;28;20041;-79
2022/12/07 00:31:34;;;;;;;35.17;27.52;;;4.70;93.20;;;;;;5012172;28;20482;-77
2022/12/07 00:34:00;;;;;;;34.95;25.10;;;4.60;93.30;;;;;;5011054;28;20042;-80
2022/12/07 00:36:26;;;;;;;25.38;19.35;;;4.60;93.30;;;;;;5010568;28;20033;-79
2022/12/07 00:38:52;;;;;;;25.35;18.33;;;4.60;93.30;;;;;;5016535;28;20033;-79
2022/12/07 00:41:23;;;;;;;23.40;17.85;;;4.60;93.30;;;;;;5015541;28;20037;-80
2022/12/07 00:43:49;;;;;;;26.30;18.17;;;4.50;93.30;;;;;;5008752;28;20406;-78
2022/12/07 00:46:16;;;;;;;22.92;17.83;;;4.50;93.40;;;;;;5011472;28;20284;-76
2022/12/07 00:48:41;;;;;;;23.83;16.77;;;4.40;93.40;;;;;;5003975;28;20434;-79
2022/12/07 00:51:09;;;;;;;21.80;16.75;;;4.40;93.40;;;;;;5011905;28;20318;-76
2022/12/07 00:53:35;;;;;;;21.00;16.80;;;4.40;93.40;;;;;;5004640;28;20034;-79
2022/12/07 00:56:36;;;;;;;21.80;16.33;;;4.30;93.40;;;;;;4997078;28;20038;-79
2022/12/07 00:59:03;;;;;;;19.75;15.57;;;4.30;93.40;;;;;;4989023;28;20285;-79
2022/12/07 01:01:34;;;;;;;20.10;15.57;;;4.30;93.40;;;;;;4994394;28;20530;-76
2022/12/07 01:04:01;;;;;;;23.02;17.92;;;4.20;93.30;;;;;;4992257;28;20042;-83
2022/12/07 01:06:27;;;;;;;21.35;16.63;;;4.10;93.30;;;;;;4997462;28;20039;-76
2022/12/07 01:08:53;;;;;;;23.02;17.88;;;4.10;93.30;;;;;;4987914;28;20030;-76
2022/12/07 01:11:21;;;;;;;24.42;17.00;;;4.10;93.30;;;;;;4990351;28;20052;-76
2022/12/07 01:13:50;;;;;;;20.75;15.77;;;4.10;93.40;;;;;;5000607;28;20103;-76
2022/12/07 01:16:17;;;;;;;21.02;15.90;;;4.00;93.40;;;;;;5019103;28;20038;-76
2022/12/07 01:18:46;;;;;;;22.70;15.77;;;3.90;93.50;;;;;;5013174;28;20037;-80
2022/12/07 01:21:15;;;;;;;22.48;15.63;;;4.00;93.60;;;;;;5005055;28;20022;-80
2022/12/07 01:23:41;;;;;;;21.83;15.85;;;4.00;93.60;;;;;;5011175;28;20037;-76
2022/12/07 01:26:10;;;;;;;20.95;15.52;;;4.00;93.60;;;;;;5007278;28;20037;-80
2022/12/07 01:28:36;;;;;;;22.48;16.67;;;4.00;93.60;;;;;;5015333;28;20021;-84
2022/12/07 01:31:11;;;;;;;21.67;16.40;;;4.00;93.70;;;;;;5013599;28;20072;-76
2022/12/07 01:33:38;;;;;;;22.10;17.17;;;4.10;93.70;;;;;;5005689;28;20038;-76
2022/12/07 01:36:07;;;;;;;27.13;16.60;;;4.20;94.00;;;;;;5013685;28;20521;-78
2022/12/07 01:38:32;;;;;;;23.08;15.88;;;4.30;94.10;;;;;;5010096;28;20038;-75
2022/12/07 01:41:00;;;;;;;22.05;16.90;;;4.30;94.10;;;;;;5015586;28;20048;-79
2022/12/07 01:43:28;;;;;;;23.45;16.27;;;4.30;94.10;;;;;;5014061;28;20046;-77
2022/12/07 01:45:54;;;;;;;24.55;17.70;;;4.40;93.90;;;;;;5012985;28;20034;-76
2022/12/07 01:48:25;;;;;;;23.08;16.15;;;4.40;93.90;;;;;;5014918;28;20061;-78
2022/12/07 01:50:53;;;;;;;22.45;14.93;;;4.40;93.90;;;;;;5011466;28;20394;-79
2022/12/07 01:53:19;;;;;;;22.55;15.48;;;4.50;93.90;;;;;;5008832;28;20414;-80
2022/12/07 01:55:49;;;;;;;22.42;13.55;;;4.50;93.90;;;;;;5014462;28;20046;-78
2022/12/07 01:58:16;;;;;;;17.85;14.63;;;4.50;93.90;;;;;;5015778;28;20037;-79
2022/12/07 02:00:42;;;;;;;20.83;14.30;;;4.50;93.90;;;;;;5016119;28;20045;-76
2022/12/07 02:03:15;;;;;;;18.67;12.88;;;4.60;93.90;;;;;;5006869;28;20463;-77
2022/12/07 02:05:42;;;;;;;19.77;12.25;;;4.60;93.90;;;;;;5014310;28;20065;-80
2022/12/07 02:08:10;;;;;;;17.45;12.98;;;4.60;93.90;;;;;;5017783;28;20108;-75
2022/12/07 02:10:35;;;;;;;20.45;13.10;;;4.60;93.90;;;;;;5017437;28;20117;-76
2022/12/07 02:13:09;;;;;;;19.13;13.70;;;4.60;93.90;;;;;;5013381;28;20135;-81
2022/12/07 02:16:14;;;;;;;20.65;13.07;;;4.60;93.90;;;;;;5015200;28;20049;-82
2022/12/07 02:18:49;;;;;;;19.40;13.27;;;4.60;93.80;;;;;;5022748;28;20037;-76
2022/12/07 02:21:44;;;;;;;21.38;12.52;;;4.50;93.80;;;;;;5010835;28;20152;-79
2022/12/07 02:24:16;;;;;;;19.60;13.25;;;4.40;93.80;;;;;;5010040;28;20046;-80
2022/12/07 02:27:17;;;;;;;19.75;12.73;;;4.40;93.80;;;;;;5018335;28;20036;-76
2022/12/07 02:30:02;;;;;;;18.02;12.68;;;4.30;93.80;;;;;;5008461;28;20032;-76
2022/12/07 02:32:41;;;;;;;19.50;13.15;;;4.20;93.80;;;;;;5022213;28;20132;-76
2022/12/07 02:35:19;;;;;;;22.15;13.13;;;4.20;93.80;;;;;;5014623;28;20105;-79
2022/12/07 02:38:15;;;;;;;25.50;14.20;;;4.10;93.80;;;;;;5017817;28;20045;-78
2022/12/07 02:40:44;;;;;;;23.52;13.75;;;4.10;93.90;;;;;;5016336;28;20113;-78
2022/12/07 02:43:19;;;;;;;19.83;14.43;;;4.00;94.00;;;;;;5016519;28;20049;-78
2022/12/07 02:45:46;;;;;;;22.00;13.65;;;4.00;94.10;;;;;;5038079;28;20045;-80
2022/12/07 02:48:16;;;;;;;20.40;12.85;;;4.00;94.20;;;;;;5023884;28;20038;-79
2022/12/07 02:50:49;;;;;;;20.48;14.07;;;4.00;94.30;;;;;;5015857;28;20033;-76
2022/12/07 02:53:37;;;;;;;20.83;13.68;;;4.00;94.30;;;;;;5025252;28;20041;-76
2022/12/07 02:56:11;;;;;;;17.80;12.00;;;4.10;94.30;;;;;;5017476;28;20029;-78
2022/12/07 02:59:00;;;;;;;16.85;11.80;;;4.10;94.30;;;;;;5011127;28;20442;-83
2022/12/07 03:01:25;;;;;;;19.27;12.07;;;4.10;94.30;;;;;;4984571;28;20050;-78
2022/12/07 03:04:06;;;;;;;18.20;12.25;;;4.10;94.30;;;;;;5004672;28;20981;-76
2022/12/07 03:06:42;;;;;;;19.02;12.15;;;4.10;94.20;;;;;;5014509;28;20046;-78
2022/12/07 03:09:15;;;;;;;17.23;11.38;;;4.10;94.10;;;;;;4994725;28;20026;-79
2022/12/07 03:11:52;;;;;;;15.38;10.48;;;4.00;94.00;;;;;;4990541;28;20042;-80
2022/12/07 03:14:44;;;;;;;16.65;10.80;;;4.00;94.10;;;;;;4996974;28;20046;-78
2022/12/07 03:17:17;;;;;;;18.42;11.68;;;4.00;94.20;;;;;;4994401;28;20315;-78
2022/12/07 03:19:46;;;;;;;17.73;11.80;;;4.00;94.30;;;;;;4994656;28;20038;-78
2022/12/07 03:22:13;;;;;;;16.77;11.98;;;4.00;94.40;;;;;;5007905;28;20046;-83
2022/12/07 03:24:54;;;;;;;19.70;13.00;;;4.10;94.50;;;;;;5010594;28;20026;-80
2022/12/07 03:27:24;;;;;;;17.55;13.07;;;4.10;94.50;;;;;;5011236;28;20069;-77
2022/12/07 03:30:14;;;;;;;22.27;13.23;;;4.10;94.40;;;;;;4995745;28;20370;-77
2022/12/07 03:32:53;;;;;;;16.90;11.65;;;4.10;94.40;;;;;;4994603;28;20383;-81
2022/12/07 03:35:28;;;;;;;20.80;13.35;;;4.10;94.40;;;;;;5023066;28;20144;-85
2022/12/07 03:38:19;;;;;;;19.65;12.82;;;4.10;94.40;;;;;;5026365;28;20033;-79
2022/12/07 03:41:00;;;;;;;16.05;11.20;;;4.10;94.40;;;;;;5017122;28;20046;-78
2022/12/07 03:43:29;;;;;;;16.55;10.88;;;4.20;94.30;;;;;;5014830;28;20038;-78
2022/12/07 03:46:04;;;;;;;15.73;10.98;;;4.20;94.30;;;;;;5009099;28;20053;-83
2022/12/07 03:48:35;;;;;;;;;;;4.20;94.30;;;;;;5019005;28;20034;-79
2022/12/07 03:51:07;;;;;;;18.08;10.90;;;4.20;94.20;;;;;;5017865;28;19921;-78
2022/12/07 03:53:48;;;;;;;18.00;10.75;;;4.20;94.20;;;;;;5018094;28;20045;-76
2022/12/07 03:56:15;;;;;;;17.98;11.23;;;4.20;94.30;;;;;;5020261;28;20356;-78
2022/12/07 03:58:41;;;;;;;18.30;11.13;;;4.20;94.20;;;;;;5012236;28;20474;-76
2022/12/07 04:01:07;;;;;;;17.52;10.20;;;4.20;94.20;;;;;;5016783;28;20040;-83
2022/12/07 04:03:33;;;;;;;16.90;10.68;;;4.10;94.30;;;;;;5016053;28;20033;-82
2022/12/07 04:05:59;;;;;;;17.70;10.43;;;4.10;94.30;;;;;;5009360;28;20104;-77
2022/12/07 04:08:25;;;;;;;17.88;11.20;;;4.10;94.30;;;;;;5008034;28;20043;-80
2022/12/07 04:10:51;;;;;;;19.27;13.70;;;4.20;94.30;;;;;;5016132;28;20089;-76
2022/12/07 04:13:16;;;;;;;19.25;12.07;;;4.20;94.40;;;;;;5012969;28;20045;-79
2022/12/07 04:15:42;;;;;;;18.45;12.27;;;4.20;94.30;;;;;;5016604;28;20033;-79
2022/12/07 04:18:08;;;;;;;18.67;11.95;;;4.10;94.30;;;;;;5017072;28;20034;-83
2022/12/07 04:20:33;;;;;;;17.80;11.52;;;4.10;94.30;;;;;;5008941;28;20037;-80
2022/12/07 04:22:59;;;;;;;19.42;12.65;;;4.10;94.30;;;;;;5015105;28;20119;-81
2022/12/07 04:25:25;;;;;;;18.50;12.23;;;4.00;94.30;;;;;;5010867;28;20519;-78
2022/12/07 04:27:50;;;;;;;17.73;12.57;;;4.00;94.30;;;;;;5017595;28;20029;-78
2022/12/07 04:30:16;;;;;;;18.27;11.75;;;3.90;94.30;;;;;;5009691;28;20123;-80
2022/12/07 04:32:42;;;;;;;17.27;11.55;;;3.90;94.40;;;;;;5017751;28;20393;-76
2022/12/07 04:35:08;;;;;;;18.98;10.52;;;3.80;94.40;;;;;;5011182;28;20026;-79
2022/12/07 04:37:34;;;;;;;17.88;11.23;;;3.80;94.40;;;;;;5018983;28;20034;-79
2022/12/07 04:39:59;;;;;;;17.95;11.15;;;3.80;94.40;;;;;;5027573;28;20057;-79
2022/12/07 04:42:25;;;;;;;17.38;11.20;;;3.70;94.50;;;;;;5021962;28;20049;-78
2022/12/07 04:44:51;;;;;;;19.42;12.05;;;3.70;94.50;;;;;;5014481;28;20042;-79
2022/12/07 04:47:16;;;;;;;20.85;12.25;;;3.80;94.60;;;;;;5024223;28;20076;-79
2022/12/07 04:49:42;;;;;;;18.33;12.23;;;3.80;94.60;;;;;;5013281;28;20116;-82
2022/12/07 04:52:08;;;;;;;20.10;11.95;;;3.80;94.70;;;;;;5009709;28;20099;-76
2022/12/07 04:54:33;;;;;;;15.90;11.75;;;3.80;94.70;;;;;;5002108;28;20045;-79
2022/12/07 04:56:59;;;;;;;16.35;11.65;;;3.90;94.80;;;;;;5007671;28;20044;-81
2022/12/07 04:59:25;;;;;;;14.90;10.38;;;3.90;94.80;;;;;;5010142;28;20048;-79
2022/12/07 05:01:50;;;;;;;17.42;11.30;;;4.00;94.70;;;;;;5008586;28;20163;-81
2022/12/07 05:04:17;;;;;;;18.02;11.25;;;4.00;94.70;;;;;;5016795;28;20075;-79
2022/12/07 05:06:43;;;;;;;18.70;11.63;;;4.00;94.60;;;;;;5011820;28;20033;-76
2022/12/07 05:09:08;;;;;;;16.25;10.82;;;3.90;94.50;;;;;;5008387;28;20408;-84
2022/12/07 05:11:40;;;;;;;13.35;9.48;;;3.90;94.50;;;;;;5007039;28;20033;-77
2022/12/07 05:14:12;;;;;;;16.95;9.45;;;3.90;94.50;;;;;;5010985;28;20022;-78
2022/12/07 05:16:39;;;;;;;17.65;8.93;;;3.90;94.50;;;;;;5015274;28;20068;-75
2022/12/07 05:19:06;;;;;;;19.85;10.27;;;3.90;94.60;;;;;;5008214;28;20108;-84
2022/12/07 05:21:31;;;;;;;17.90;10.73;;;3.90;94.60;;;;;;5014206;28;20522;-79
2022/12/07 05:23:57;;;;;;;20.63;13.18;;;4.00;94.70;;;;;;5016284;28;20068;-83
2022/12/07 05:26:23;;;;;;;22.30;13.35;;;4.10;94.70;;;;;;5008934;28;20092;-77
2022/12/07 05:28:53;;;;;;;17.63;13.18;;;4.10;94.80;;;;;;5008844;28;20121;-76
2022/12/07 05:31:19;;;;;;;19.85;13.23;;;4.10;94.80;;;;;;5012854;28;20037;-83
2022/12/07 05:33:45;;;;;;;17.75;13.43;;;4.10;94.70;;;;;;5002027;28;20628;-77
2022/12/07 05:36:11;;;;;;;20.42;13.88;;;4.10;94.70;;;;;;5016292;28;20072;-76
2022/12/07 05:38:37;;;;;;;22.75;17.35;;;4.20;94.70;;;;;;5015983;28;20040;-75
2022/12/07 05:41:04;;;;;;;24.65;16.13;;;4.10;94.60;;;;;;5011521;28;20045;-78
2022/12/07 05:43:32;;;;;;;25.35;16.17;;;4.20;94.70;;;;;;5018106;28;20030;-79
2022/12/07 05:45:58;;;;;;;21.30;14.52;;;4.20;94.70;;;;;;5009166;28;20390;-76
2022/12/07 05:48:24;;;;;;;20.42;14.45;;;4.10;94.60;;;;;;5008379;28;20514;-76
2022/12/07 05:50:51;;;;;;;22.73;15.40;;;4.20;94.70;;;;;;5013493;28;20034;-82
2022/12/07 05:53:16;;;;;;;23.05;15.00;;;4.20;94.70;;;;;;5010856;28;20744;-79
2022/12/07 05:55:43;;;;;;;23.30;14.15;;;4.20;94.70;;;;;;5011316;28;20493;-76
2022/12/07 06:00:55;;;;;;;24.30;13.02;;;4.20;94.80;;;;;;5011659;28;20033;-82
2022/12/07 06:03:20;;;;;;;17.80;11.93;;;4.30;94.80;;;;;;5009905;28;20041;-79
2022/12/07 06:05:46;;;;;;;20.42;11.80;;;4.30;94.80;;;;;;5007252;28;20034;-76
2022/12/07 06:08:12;;;;;;;19.67;11.38;;;4.30;94.70;;;;;;5013170;28;20528;-81
2022/12/07 06:10:37;;;;;;;20.95;11.90;;;4.20;94.70;;;;;;5008118;28;20056;-78
2022/12/07 06:13:03;;;;;;;15.95;10.68;;;4.30;94.70;;;;;;5011191;28;20128;-83
2022/12/07 06:15:29;;;;;;;17.63;9.65;;;4.20;94.60;;;;;;5008710;28;20045;-79
2022/12/07 06:17:54;;;;;;;16.00;9.98;;;4.20;94.70;;;;;;5010070;28;20339;-76
2022/12/07 06:20:20;;;;;;;15.75;9.05;;;4.20;94.70;;;;;;5007414;28;20390;-84
2022/12/07 06:22:45;;;;;;;21.20;11.43;;;4.20;94.70;;;;;;5012232;28;20046;-79
2022/12/07 06:25:11;;;;;;;18.98;11.00;;;4.20;94.70;;;;;;5004205;28;20046;-79
2022/12/07 06:27:37;;;;;;;20.70;11.93;;;4.20;94.80;;;;;;5019045;28;20445;-76
2022/12/07 06:30:06;;;;;;;18.00;11.27;;;4.20;94.80;;;;;;5015867;28;20130;-78
2022/12/07 06:32:32;;;;;;;23.02;11.48;;;4.20;94.80;;;;;;5004383;28;20034;-84
2022/12/07 06:34:59;;;;;;;21.10;11.48;;;4.20;94.90;;;;;;5016140;28;20138;-80
2022/12/07 06:37:25;;;;;;;23.23;12.80;;;4.20;94.90;;;;;;5018539;28;20033;-75
2022/12/07 06:39:50;;;;;;;23.35;12.85;;;4.20;94.90;;;;;;5020836;28;20041;-79
2022/12/07 06:42:16;;;;;;;19.63;12.23;;;4.20;94.80;;;;;;5014312;28;20666;-76
2022/12/07 06:44:41;;;;;;;22.92;12.90;;;4.20;94.80;;;;;;5010746;28;20038;-76
2022/12/07 06:47:09;;;;;;;26.48;12.73;;;4.20;94.70;;;;;;5012574;28;20073;-78
2022/12/07 06:49:35;;;;;;;20.38;12.10;;;4.20;94.70;;;;;;5013717;28;20563;-76
2022/12/07 06:52:00;;;;;;;24.85;12.35;;;4.20;94.70;;;;;;5017801;28;20037;-81
2022/12/07 06:54:27;;;;;;;26.45;14.52;;;4.20;94.70;;;;;;5012916;28;20030;-77
2022/12/07 06:56:52;;;;;;;48.13;25.58;;;4.20;94.70;;;;;;5015543;28;20030;-76
2022/12/07 06:59:18;;;;;;;49.58;26.58;;;4.20;94.70;;;;;;5012985;28;20022;-80
2022/12/07 07:01:44;;;;;;;45.55;25.20;;;4.20;94.70;;;;;;5012624;28;20052;-78
2022/12/07 07:04:09;;;;;;;40.95;22.30;;;4.20;94.60;;;;;;5017649;28;20033;-79
2022/12/07 07:06:35;;;;;;;37.80;22.35;;;4.20;94.60;;;;;;5021218;28;20396;-78
2022/12/07 07:09:02;;;;;;;35.97;19.20;;;4.10;94.50;;;;;;5006875;28;20584;-76
2022/12/07 07:11:27;;;;;;;28.80;17.63;;;4.10;94.50;;;;;;5026665;28;20068;-82
2022/12/07 07:13:56;;;;;;;30.55;17.50;;;4.10;94.40;;;;;;5018646;28;20518;-77
2022/12/07 07:16:22;;;;;;;23.02;14.43;;;4.10;94.50;;;;;;5017000;28;20037;-78
2022/12/07 07:18:48;;;;;;;22.60;13.55;;;4.10;94.50;;;;;;5017198;28;20323;-79
2022/12/07 07:21:13;;;;;;;19.33;12.95;;;4.10;94.60;;;;;;5031592;28;20525;-76
2022/12/07 07:23:39;;;;;;;24.27;13.02;;;4.10;94.60;;;;;;5002186;28;20027;-84
2022/12/07 07:26:05;;;;;;;35.45;20.83;;;4.10;94.70;;;;;;5002884;28;20025;-85
2022/12/07 07:28:30;;;;;;;21.08;14.88;;;4.00;94.50;;;;;;4994815;28;20109;-77
2022/12/07 07:30:56;;;;;;;25.77;15.60;;;4.00;94.50;;;;;;4990711;28;20119;-79
2022/12/07 07:33:22;;;;;;;28.38;16.17;;;4.10;94.50;;;;;;4990045;28;20033;-77
2022/12/07 07:35:47;;;;;;;30.58;16.05;;;4.10;94.50;;;;;;4994702;28;20032;-86
2022/12/07 07:38:13;;;;;;;21.77;14.52;;;4.10;94.50;;;;;;4992021;28;20085;-75
2022/12/07 07:40:39;;;;;;;22.95;13.55;;;4.10;94.50;;;;;;4992213;28;20050;-80
2022/12/07 07:43:04;;;;;;;21.40;12.85;;;4.10;94.50;;;;;;4993345;28;20034;-81
2022/12/07 07:45:30;;;;;;;21.52;14.13;;;4.10;94.50;;;;;;4992728;28;20045;-76
2022/12/07 07:47:56;;;;;;;26.55;14.27;;;4.10;94.50;;;;;;4991523;28;20117;-81
2022/12/07 07:50:21;;;;;;;20.55;13.25;;;4.10;94.50;;;;;;4997120;28;20604;-77
2022/12/07 07:52:47;;;;;;;23.98;15.20;;;4.20;94.60;;;;;;4991712;28;20037;-78
2022/12/07 07:55:13;;;;;;;23.98;14.77;;;4.20;94.50;;;;;;4990588;28;20030;-82
2022/12/07 07:57:40;;;;;;;26.85;16.08;;;4.20;94.50;;;;;;4993268;28;20114;-77
2022/12/07 08:00:09;;;;;;;21.65;15.02;;;4.20;94.50;;;;;;4993275;28;20042;-80
2022/12/07 08:02:35;;;;;;;24.35;14.73;;;4.20;94.50;;;;;;4993578;28;20423;-78
2022/12/07 08:05:01;;;;;;;23.42;14.43;;;4.30;94.50;;;;;;4994332;28;20048;-78
2022/12/07 08:07:27;;;;;;;22.77;15.70;;;4.40;94.50;;;;;;5000154;28;20034;-80
2022/12/07 08:09:53;;;;;;;24.02;15.00;;;4.40;94.50;;;;;;4990051;28;20936;-77
2022/12/07 08:12:19;;;;;;;24.05;14.05;;;4.40;94.50;;;;;;4989579;28;20056;-80
2022/12/07 08:14:44;;;;;;;31.73;16.10;;;4.40;94.40;;;;;;4994570;28;20050;-82
2022/12/07 08:17:10;;;;;;;23.10;14.18;;;4.50;94.40;;;;;;4994573;28;20042;-79
2022/12/07 08:19:36;;;;;;;25.42;14.27;;;4.50;94.40;;;;;;4989751;28;20029;-81
2022/12/07 08:22:02;;;;;;;23.27;14.52;;;4.50;94.30;;;;;;4996002;28;20734;-80
2022/12/07 08:24:27;;;;;;;20.08;13.15;;;4.50;94.20;;;;;;4994970;28;20038;-78
2022/12/07 08:26:53;;;;;;;20.33;12.93;;;4.50;94.20;;;;;;4990199;28;20038;-79
2022/12/07 08:29:19;;;;;;;18.30;12.02;;;4.50;94.30;;;;;;4991692;28;20029;-78
2022/12/07 08:31:45;;;;;;;24.08;13.57;;;4.60;94.20;;;;;;4990829;28;20132;-78
2022/12/07 08:34:11;;;;;;;18.42;11.52;;;4.60;94.20;;;;;;4991984;28;20174;-78
2022/12/07 08:36:37;;;;;;;21.85;10.63;;;4.70;94.20;;;;;;4989198;28;20439;-79
2022/12/07 08:39:03;;;;;;;15.60;10.10;;;4.70;94.20;;;;;;4989958;28;20064;-79
2022/12/07 08:41:29;;;;;;;19.10;9.25;;;4.70;94.20;;;;;;4992260;28;20517;-79
2022/12/07 08:43:54;;;;;;;18.05;9.57;;;4.80;94.20;;;;;;4991027;28;20088;-79
2022/12/07 08:46:30;;;;;;;18.80;9.23;;;4.80;94.20;;;;;;4991405;28;20168;-79
2022/12/07 08:49:01;;;;;;;16.83;9.65;;;4.90;94.30;;;;;;5014639;28;20033;-79
2022/12/07 08:51:27;;;;;;;19.02;9.50;;;4.90;94.30;;;;;;4995533;28;20081;-78
2022/12/07 08:53:55;;;;;;;16.88;8.55;;;5.00;94.20;;;;;;4990528;28;20026;-78
2022/12/07 08:56:22;;;;;;;18.10;9.88;;;5.00;94.20;;;;;;4990676;28;20498;-79
2022/12/07 08:58:48;;;;;;;17.63;9.80;;;5.10;94.10;;;;;;4993930;28;20034;-77
2022/12/07 09:01:14;;;;;;;15.75;9.63;;;5.10;94.10;;;;;;5000180;28;20128;-80
2022/12/07 09:03:40;;;;;;;18.33;9.82;;;5.10;94.10;;;;;;5017194;28;20132;-79
2022/12/07 09:06:06;;;;;;;20.10;9.73;;;5.10;94.10;;;;;;5015841;28;20064;-80
2022/12/07 09:08:37;;;;;;;19.33;10.88;;;5.00;93.90;;;;;;5011274;28;20613;-77
2022/12/07 09:11:03;;;;;;;23.90;11.63;;;5.00;94.00;;;;;;5010941;28;20029;-77
2022/12/07 09:13:28;;;;;;;18.52;10.85;;;5.00;93.90;;;;;;5016846;28;20033;-80
2022/12/07 09:15:54;;;;;;;18.33;9.75;;;5.10;93.90;;;;;;5013056;28;20045;-77
2022/12/07 09:18:20;;;;;;;21.20;9.98;;;5.10;93.90;;;;;;5012659;28;20034;-77
2022/12/07 09:20:45;;;;;;;19.67;9.77;;;5.20;93.80;;;;;;5000045;28;20048;-76
2022/12/07 09:23:11;;;;;;;17.67;9.57;;;5.20;93.80;;;;;;4994626;28;20046;-77
2022/12/07 09:25:37;;;;;;;16.58;9.55;;;5.30;93.80;;;;;;4997446;28;20097;-77
2022/12/07 09:28:02;;;;;;;16.13;9.07;;;5.40;93.80;;;;;;4992729;28;20403;-83
2022/12/07 09:30:28;;;;;;;14.65;9.27;;;5.50;93.80;;;;;;4987146;28;20041;-82
2022/12/07 09:32:55;;;;;;;16.45;8.60;;;5.60;93.80;;;;;;4977006;28;20465;-82
2022/12/07 09:35:21;;;;;;;21.27;8.38;;;5.80;93.70;;;;;;4975725;28;20038;-79
2022/12/07 09:37:47;;;;;;;16.80;7.53;;;5.90;93.70;;;;;;4975687;28;20389;-81
2022/12/07 09:40:14;;;;;;;13.48;6.78;;;6.00;93.50;;;;;;4976685;28;20055;-81
2022/12/07 09:42:44;;;;;;;15.40;7.35;;;6.00;93.40;;;;;;4979052;28;20035;-81
2022/12/07 09:45:26;;;;;;;14.98;6.22;;;6.10;93.10;;;;;;4986622;28;20128;-79
2022/12/07 09:47:52;;;;;;;13.35;6.70;;;6.10;93.10;;;;;;4985038;28;20045;-77
2022/12/07 09:50:24;;;;;;;14.18;7.65;;;6.30;93.20;;;;;;4987818;28;20030;-77
2022/12/07 09:52:51;;;;;;;12.20;6.53;;;6.40;93.10;;;;;;4991486;28;20764;-80
2022/12/07 09:55:24;;;;;;;14.88;6.82;;;6.40;92.80;;;;;;4980087;28;20030;-80
2022/12/07 09:57:53;;;;;;;12.80;6.25;;;6.40;92.60;;;;;;4985721;28;20049;-77
2022/12/07 10:00:22;;;;;;;12.95;5.93;;;6.40;92.60;;;;;;4986965;28;20108;-79
2022/12/07 10:02:59;;;;;;;15.48;6.65;;;6.20;92.20;;;;;;4981463;28;20046;-78
2022/12/07 10:05:40;;;;;;;13.55;5.05;;;6.10;92.20;;;;;;4988773;28;20038;-78
2022/12/07 10:08:07;;;;;;;11.55;5.45;;;6.20;92.50;;;;;;4984346;28;20034;-78
2022/12/07 10:10:34;;;;;;;14.35;5.20;;;6.40;93.00;;;;;;4988792;28;20042;-78
2022/12/07 10:13:09;;;;;;;10.98;4.90;;;6.60;93.10;;;;;;4986142;28;20096;-78
2022/12/07 10:15:52;;;;;;;10.95;4.90;;;6.80;92.80;;;;;;4990567;28;20073;-78
2022/12/07 10:18:25;;;;;;;10.35;4.88;;;7.00;92.30;;;;;;4984535;28;20040;-78
2022/12/07 10:21:09;;;;;;;10.95;4.60;;;7.10;91.90;;;;;;4992062;28;20129;-80
2022/12/07 10:23:36;;;;;;;12.23;5.45;;;7.20;90.90;;;;;;4999137;28;20422;-77
2022/12/07 10:26:32;;;;;;;12.77;6.07;;;7.30;90.20;;;;;;4999368;28;20034;-79
2022/12/07 10:29:22;;;;;;;10.05;4.60;;;7.50;89.30;;;;;;4990222;28;20137;-75
2022/12/07 10:31:57;;;;;;;12.13;4.65;;;7.50;88.30;;;;;;4994284;28;20406;-78
2022/12/07 10:34:24;;;;;;;11.57;3.95;;;7.40;88.00;;;;;;4999199;28;20030;-78
2022/12/07 10:36:51;;;;;;;12.15;4.00;;;7.20;87.90;;;;;;4998864;28;20041;-77
2022/12/07 10:39:23;;;;;;;11.90;4.03;;;7.20;87.90;;;;;;4991230;28;20041;-78
2022/12/07 10:42:01;;;;;;;12.25;4.75;;;7.10;88.30;;;;;;4997495;28;20041;-77
2022/12/07 10:44:33;;;;;;;9.15;4.47;;;7.00;88.40;;;;;;4999447;28;20049;-80
2022/12/07 10:47:01;;;;;;;9.35;4.30;;;7.10;88.50;;;;;;4995306;28;20035;-77
2022/12/07 10:49:54;;;;;;;12.13;4.63;;;7.10;88.60;;;;;;4993943;28;20053;-79
2022/12/07 10:52:39;;;;;;;14.73;6.85;;;7.10;88.90;;;;;;4993744;28;20421;-77
2022/12/07 10:55:26;;;;;;;20.05;9.50;;;7.20;89.00;;;;;;4990428;28;20405;-77
2022/12/07 10:58:13;;;;;;;23.80;13.10;;;7.20;88.60;;;;;;4997632;28;20038;-78
2022/12/07 11:01:05;;;;;;;20.92;11.13;;;7.20;88.30;;;;;;4991314;28;20087;-82
2022/12/07 11:03:52;;;;;;;14.23;5.45;;;7.30;88.30;;;;;;4997675;28;20038;-78
2022/12/07 11:06:32;;;;;;;14.95;5.00;;;7.20;88.40;;;;;;4995007;28;20771;-80
2022/12/07 11:09:21;;;;;;;12.88;6.38;;;7.20;88.40;;;;;;5001292;28;20033;-79
2022/12/07 11:12:18;;;;;;;13.82;5.07;;;7.10;88.30;;;;;;4994497;28;20046;-79
2022/12/07 11:15:19;;;;;;;13.32;5.63;;;7.00;88.30;;;;;;4988332;28;20089;-79
2022/12/07 11:18:07;;;;;;;13.68;4.50;;;6.90;88.30;;;;;;4988877;28;20041;-79
2022/12/07 11:20:44;;;;;;;15.35;6.68;;;7.00;88.30;;;;;;4998625;28;20380;-77
2022/12/07 11:23:31;;;;;;;19.65;10.07;;;7.00;88.60;;;;;;4995370;28;20452;-78
2022/12/07 11:26:24;;;;;;;13.80;5.78;;;7.00;88.30;;;;;;4997945;28;20047;-78
2022/12/07 11:29:30;;;;;;;10.82;4.47;;;7.00;88.30;;;;;;5007070;28;20070;-78
2022/12/07 11:32:38;;;;;;;12.30;4.35;;;7.10;88.60;;;;;;4995870;28;20038;-79
2022/12/07 11:35:13;;;;;;;12.02;5.57;;;7.20;88.30;;;;;;5008970;28;20030;-78
2022/12/07 11:37:41;;;;;;;;;;;7.20;88.20;;;;;;5000861;28;20033;-78
2022/12/07 11:40:19;;;;;;;12.57;5.00;;;7.20;87.90;;;;;;5007439;28;19920;-78
2022/12/07 11:43:28;;;;;;;10.32;4.40;;;7.30;88.00;;;;;;5005470;28;20081;-79
2022/12/07 11:46:04;;;;;;;12.05;3.58;;;7.40;87.90;;;;;;4999587;28;20553;-80
2022/12/07 11:48:49;;;;;;;13.15;4.03;;;7.40;87.80;;;;;;4995917;28;20112;-78
2022/12/07 11:51:18;;;;;;;7.95;3.92;;;7.40;87.80;;;;;;5011049;28;20112;-79
2022/12/07 11:53:49;;;;;;;11.25;5.20;;;7.60;87.90;;;;;;5014072;28;20091;-78
2022/12/07 11:56:19;;;;;;;11.55;4.35;;;7.60;87.80;;;;;;5014217;28;20038;-77
2022/12/07 11:58:48;;;;;;;12.43;4.70;;;7.60;87.50;;;;;;5011879;28;20474;-80
2022/12/07 12:01:17;;;;;;;10.60;4.38;;;7.40;87.50;;;;;;5014224;28;20431;-81
2022/12/07 12:04:07;;;;;;;9.70;2.95;;;7.40;87.60;;;;;;5013661;28;20049;-78
2022/12/07 12:06:35;;;;;;;9.25;3.90;;;7.30;87.70;;;;;;5012706;28;20588;-78
2022/12/07 12:09:06;;;;;;;9.93;3.30;;;7.30;87.80;;;;;;5009354;28;20129;-81
2022/12/07 12:11:56;;;;;;;9.38;3.92;;;7.20;87.90;;;;;;5009903;28;20090;-80
2022/12/07 12:14:22;;;;;;;10.77;3.50;;;7.10;87.80;;;;;;4995353;28;20506;-77
2022/12/07 12:16:56;;;;;;;7.05;3.25;;;7.10;87.80;;;;;;4993575;28;20037;-78
2022/12/07 12:19:59;;;;;;;7.32;2.72;;;7.30;87.80;;;;;;4991205;28;20034;-79
2022/12/07 12:22:36;;;;;;;7.57;2.70;;;7.50;87.50;;;;;;4992111;28;20061;-80
2022/12/07 12:25:05;;;;;;;8.25;2.67;;;7.70;87.10;;;;;;4992453;28;20439;-80
2022/12/07 12:27:36;;;;;;;8.77;3.38;;;7.80;86.10;;;;;;4982686;28;20432;-81
2022/12/07 12:30:05;;;;;;;10.45;3.63;;;7.80;86.00;;;;;;4999405;28;20617;-80
2022/12/07 12:32:42;;;;;;;8.38;3.08;;;8.00;86.00;;;;;;5005941;28;20041;-80
2022/12/07 12:35:36;;;;;;;9.07;3.13;;;8.10;85.60;;;;;;4986917;28;20034;-80
2022/12/07 12:38:33;;;;;;;7.00;2.55;;;8.10;85.10;;;;;;4991278;28;20092;-80
2022/12/07 12:41:07;;;;;;;10.07;2.28;;;8.00;84.30;;;;;;4987697;28;20042;-80
2022/12/07 12:43:52;;;;;;;5.30;1.52;;;7.80;83.20;;;;;;5006154;28;20128;-80
2022/12/07 12:46:33;;;;;;;2.85;1.35;;;7.70;81.70;;;;;;5002304;28;20030;-80
2022/12/07 12:49:19;;;;;;;3.63;1.45;;;7.60;81.10;;;;;;5009071;28;20552;-80
2022/12/07 12:51:46;;;;;;;9.13;3.78;;;7.60;80.90;;;;;;5012548;28;20045;-81
2022/12/07 12:54:20;;;;;;;14.55;8.57;;;7.50;81.10;;;;;;5001349;28;20042;-80
2022/12/07 12:57:16;;;;;;;8.02;4.22;;;7.50;82.60;;;;;;4998645;28;20045;-79
2022/12/07 12:59:51;;;;;;;10.10;3.50;;;7.60;84.30;;;;;;5000743;28;20037;-80
2022/12/07 13:02:27;;;;;;;9.85;3.50;;;7.60;85.00;;;;;;4995792;28;20522;-80
2022/12/07 13:05:09;;;;;;;8.88;3.85;;;7.60;85.40;;;;;;4999048;28;20042;-80